Details for Jet2 at LEAL




Go Back


Latest METAR
Local Time

LEAL 160930Z 13005KT 070V210 9999 FEW023 SCT031 28/21 Q1016 NOSIG
16/08/2018, 11:48:30

Description
Results
Jet2 Logo
Number of Pilots based at LEAL
0 Pilots Based here
Number of Jet2 Flights Departed from LEAL
0 Flights Departed
Number of Jet2 Flights Arrived at LEAL
0 Flights Arrived
Number of Jet2 Schedules Departing from LEAL
38 Schedules
Number of Jet2 Schedules Arriving at LEAL
36 Schedules
Number of Jet2 Schedules Departing from LEAL availible today
8 Schedules Today
Number of Jet2 Schedules Arriving at LEAL availible today
8 Schedules Today
Average Landing Rate at LEAL
-238 fpm
Jet2 Average Landing Rate at LEAL
0 fpm
Total Fuel Purchased at LEAL by Jet2
0.00 kgs / 0.00 lbs

Pilots Based at LEAL


Pilot ID
Pilot Name
Pilot Rank
No. of Flights
No. of Flying Hours
There are no pilots assigned to this hub!   Will you be the first?
Content